sensor_id;sensor_type;location;lat;lon;timestamp;P1;durP1;ratioP1;P2;durP2;ratioP2
28631;SDS011;15818;45.534;5.292;2022-10-16T00:02:20;5.28;;;2.70;;
28631;SDS011;15818;45.534;5.292;2022-10-16T00:07:11;8.15;;;2.80;;
28631;SDS011;15818;45.534;5.292;2022-10-16T00:12:02;5.20;;;2.75;;
28631;SDS011;15818;45.534;5.292;2022-10-16T00:14:29;3.90;;;3.17;;
28631;SDS011;15818;45.534;5.292;2022-10-16T00:19:20;4.55;;;2.90;;
28631;SDS011;15818;45.534;5.292;2022-10-16T00:24:12;6.53;;;2.97;;
28631;SDS011;15818;45.534;5.292;2022-10-16T00:26:38;5.07;;;3.03;;
28631;SDS011;15818;45.534;5.292;2022-10-16T00:29:04;4.30;;;3.08;;
28631;SDS011;15818;45.534;5.292;2022-10-16T00:31:30;6.60;;;3.05;;
28631;SDS011;15818;45.534;5.292;2022-10-16T00:36:22;6.93;;;3.03;;
28631;SDS011;15818;45.534;5.292;2022-10-16T00:38:51;8.45;;;3.10;;
28631;SDS011;15818;45.534;5.292;2022-10-16T00:41:19;7.15;;;3.17;;
28631;SDS011;15818;45.534;5.292;2022-10-16T00:43:47;4.47;;;3.17;;
28631;SDS011;15818;45.534;5.292;2022-10-16T00:48:57;6.63;;;3.30;;
28631;SDS011;15818;45.534;5.292;2022-10-16T00:51:37;5.03;;;3.30;;
28631;SDS011;15818;45.534;5.292;2022-10-16T00:54:07;6.50;;;2.92;;
28631;SDS011;15818;45.534;5.292;2022-10-16T00:56:36;7.82;;;3.42;;
28631;SDS011;15818;45.534;5.292;2022-10-16T01:01:30;4.60;;;3.35;;
28631;SDS011;15818;45.534;5.292;2022-10-16T01:06:23;5.43;;;3.40;;
28631;SDS011;15818;45.534;5.292;2022-10-16T01:09:10;6.68;;;3.50;;
28631;SDS011;15818;45.534;5.292;2022-10-16T01:11:57;6.47;;;3.70;;
28631;SDS011;15818;45.534;5.292;2022-10-16T01:17:41;6.22;;;3.70;;
28631;SDS011;15818;45.534;5.292;2022-10-16T01:22:57;5.43;;;3.70;;
28631;SDS011;15818;45.534;5.292;2022-10-16T01:25:59;5.50;;;2.90;;
28631;SDS011;15818;45.534;5.292;2022-10-16T01:28:30;8.65;;;4.32;;
28631;SDS011;15818;45.534;5.292;2022-10-16T01:31:01;5.30;;;3.53;;
28631;SDS011;15818;45.534;5.292;2022-10-16T01:33:44;4.72;;;3.22;;
28631;SDS011;15818;45.534;5.292;2022-10-16T01:36:19;5.70;;;4.07;;
28631;SDS011;15818;45.534;5.292;2022-10-16T01:38:51;6.88;;;3.50;;
28631;SDS011;15818;45.534;5.292;2022-10-16T01:41:23;7.85;;;4.47;;
28631;SDS011;15818;45.534;5.292;2022-10-16T01:44:01;7.47;;;3.88;;
28631;SDS011;15818;45.534;5.292;2022-10-16T01:46:36;6.07;;;3.47;;
28631;SDS011;15818;45.534;5.292;2022-10-16T01:49:05;5.28;;;3.28;;
28631;SDS011;15818;45.534;5.292;2022-10-16T01:51:33;5.68;;;3.85;;
28631;SDS011;15818;45.534;5.292;2022-10-16T01:54:00;6.82;;;3.60;;
28631;SDS011;15818;45.534;5.292;2022-10-16T01:56:29;4.82;;;3.17;;
28631;SDS011;15818;45.534;5.292;2022-10-16T01:58:57;5.28;;;3.78;;
28631;SDS011;15818;45.534;5.292;2022-10-16T02:01:26;8.05;;;4.13;;
28631;SDS011;15818;45.534;5.292;2022-10-16T02:03:55;5.47;;;3.55;;
28631;SDS011;15818;45.534;5.292;2022-10-16T02:06:25;6.38;;;3.97;;
28631;SDS011;15818;45.534;5.292;2022-10-16T02:08:51;8.45;;;4.50;;
28631;SDS011;15818;45.534;5.292;2022-10-16T02:13:46;8.07;;;3.75;;
28631;SDS011;15818;45.534;5.292;2022-10-16T02:16:17;5.18;;;4.03;;
28631;SDS011;15818;45.534;5.292;2022-10-16T02:23:59;17.00;;;5.25;;
28631;SDS011;15818;45.534;5.292;2022-10-16T02:26:49;6.30;;;5.07;;
28631;SDS011;15818;45.534;5.292;2022-10-16T02:29:22;10.07;;;4.90;;
28631;SDS011;15818;45.534;5.292;2022-10-16T02:31:50;5.55;;;4.45;;
28631;SDS011;15818;45.534;5.292;2022-10-16T02:34:23;8.40;;;4.68;;
28631;SDS011;15818;45.534;5.292;2022-10-16T02:36:51;8.63;;;5.38;;
28631;SDS011;15818;45.534;5.292;2022-10-16T02:39:18;7.38;;;5.22;;
28631;SDS011;15818;45.534;5.292;2022-10-16T02:41:45;9.43;;;5.00;;
28631;SDS011;15818;45.534;5.292;2022-10-16T02:46:36;8.30;;;5.18;;
28631;SDS011;15818;45.534;5.292;2022-10-16T02:51:28;9.18;;;4.97;;
28631;SDS011;15818;45.534;5.292;2022-10-16T02:56:19;8.70;;;5.18;;
28631;SDS011;15818;45.534;5.292;2022-10-16T03:01:11;8.23;;;4.70;;
28631;SDS011;15818;45.534;5.292;2022-10-16T03:03:38;8.75;;;4.90;;
28631;SDS011;15818;45.534;5.292;2022-10-16T03:06:04;11.63;;;4.97;;
28631;SDS011;15818;45.534;5.292;2022-10-16T03:10:55;8.23;;;5.20;;
28631;SDS011;15818;45.534;5.292;2022-10-16T03:15:46;7.30;;;5.07;;
28631;SDS011;15818;45.534;5.292;2022-10-16T03:20:38;9.43;;;5.65;;
28631;SDS011;15818;45.534;5.292;2022-10-16T03:25:29;10.05;;;6.15;;
28631;SDS011;15818;45.534;5.292;2022-10-16T03:30:21;9.82;;;5.38;;
28631;SDS011;15818;45.534;5.292;2022-10-16T03:35:12;13.70;;;6.38;;
28631;SDS011;15818;45.534;5.292;2022-10-16T03:40:04;11.55;;;5.93;;
28631;SDS011;15818;45.534;5.292;2022-10-16T03:42:30;10.95;;;6.00;;
28631;SDS011;15818;45.534;5.292;2022-10-16T03:47:21;10.23;;;6.15;;
28631;SDS011;15818;45.534;5.292;2022-10-16T03:49:48;9.93;;;5.90;;
28631;SDS011;15818;45.534;5.292;2022-10-16T03:52:15;7.55;;;5.32;;
28631;SDS011;15818;45.534;5.292;2022-10-16T03:54:41;13.57;;;5.82;;
28631;SDS011;15818;45.534;5.292;2022-10-16T03:59:32;7.93;;;6.10;;
28631;SDS011;15818;45.534;5.292;2022-10-16T04:04:24;7.95;;;5.20;;
28631;SDS011;15818;45.534;5.292;2022-10-16T04:06:50;9.13;;;5.53;;
28631;SDS011;15818;45.534;5.292;2022-10-16T04:11:41;8.13;;;6.03;;
28631;SDS011;15818;45.534;5.292;2022-10-16T04:16:33;9.90;;;5.70;;
28631;SDS011;15818;45.534;5.292;2022-10-16T04:21:24;9.23;;;5.50;;
28631;SDS011;15818;45.534;5.292;2022-10-16T04:26:15;9.73;;;5.97;;
28631;SDS011;15818;45.534;5.292;2022-10-16T04:28:41;9.38;;;5.85;;
28631;SDS011;15818;45.534;5.292;2022-10-16T04:31:07;9.75;;;5.72;;
28631;SDS011;15818;45.534;5.292;2022-10-16T04:35:59;6.13;;;5.15;;
28631;SDS011;15818;45.534;5.292;2022-10-16T04:38:25;8.80;;;5.60;;
28631;SDS011;15818;45.534;5.292;2022-10-16T04:40:52;9.77;;;5.57;;
28631;SDS011;15818;45.534;5.292;2022-10-16T04:43:18;9.52;;;5.72;;
28631;SDS011;15818;45.534;5.292;2022-10-16T04:45:44;8.80;;;6.22;;
28631;SDS011;15818;45.534;5.292;2022-10-16T04:50:36;9.77;;;6.15;;
28631;SDS011;15818;45.534;5.292;2022-10-16T04:55:27;12.10;;;6.25;;
28631;SDS011;15818;45.534;5.292;2022-10-16T05:00:18;11.93;;;6.30;;
28631;SDS011;15818;45.534;5.292;2022-10-16T05:05:10;7.07;;;5.82;;
28631;SDS011;15818;45.534;5.292;2022-10-16T05:07:36;9.10;;;6.32;;
28631;SDS011;15818;45.534;5.292;2022-10-16T05:12:28;8.73;;;5.85;;
28631;SDS011;15818;45.534;5.292;2022-10-16T05:17:23;8.85;;;5.70;;
28631;SDS011;15818;45.534;5.292;2022-10-16T05:19:50;8.77;;;5.47;;
28631;SDS011;15818;45.534;5.292;2022-10-16T05:24:41;7.68;;;5.53;;
28631;SDS011;15818;45.534;5.292;2022-10-16T05:29:33;8.98;;;5.47;;
28631;SDS011;15818;45.534;5.292;2022-10-16T05:34:24;8.38;;;5.70;;
28631;SDS011;15818;45.534;5.292;2022-10-16T05:39:15;8.77;;;5.80;;
28631;SDS011;15818;45.534;5.292;2022-10-16T05:44:07;8.95;;;6.38;;
28631;SDS011;15818;45.534;5.292;2022-10-16T05:48:58;9.35;;;6.28;;
28631;SDS011;15818;45.534;5.292;2022-10-16T05:53:50;7.68;;;6.18;;
28631;SDS011;15818;45.534;5.292;2022-10-16T05:56:17;11.10;;;6.38;;
28631;SDS011;15818;45.534;5.292;2022-10-16T06:03:36;12.70;;;6.80;;
28631;SDS011;15818;45.534;5.292;2022-10-16T06:08:38;7.13;;;4.90;;
28631;SDS011;15818;45.534;5.292;2022-10-16T06:11:05;10.52;;;5.38;;
28631;SDS011;15818;45.534;5.292;2022-10-16T06:13:32;6.75;;;5.00;;
28631;SDS011;15818;45.534;5.292;2022-10-16T06:18:25;9.32;;;5.63;;
28631;SDS011;15818;45.534;5.292;2022-10-16T06:20:52;7.10;;;6.10;;
28631;SDS011;15818;45.534;5.292;2022-10-16T06:23:18;10.55;;;6.15;;
28631;SDS011;15818;45.534;5.292;2022-10-16T06:28:10;7.80;;;5.45;;
28631;SDS011;15818;45.534;5.292;2022-10-16T06:33:01;7.78;;;5.10;;
28631;SDS011;15818;45.534;5.292;2022-10-16T06:37:54;7.10;;;5.25;;
28631;SDS011;15818;45.534;5.292;2022-10-16T06:42:45;7.38;;;5.38;;
28631;SDS011;15818;45.534;5.292;2022-10-16T06:47:37;7.75;;;4.35;;
28631;SDS011;15818;45.534;5.292;2022-10-16T06:52:29;5.80;;;4.40;;
28631;SDS011;15818;45.534;5.292;2022-10-16T06:57:20;6.43;;;4.05;;
28631;SDS011;15818;45.534;5.292;2022-10-16T07:02:11;7.18;;;3.65;;
28631;SDS011;15818;45.534;5.292;2022-10-16T07:07:03;8.65;;;5.45;;
28631;SDS011;15818;45.534;5.292;2022-10-16T07:11:54;7.28;;;3.50;;
28631;SDS011;15818;45.534;5.292;2022-10-16T07:16:46;10.07;;;6.57;;
28631;SDS011;15818;45.534;5.292;2022-10-16T07:19:12;5.53;;;3.00;;
28631;SDS011;15818;45.534;5.292;2022-10-16T07:21:40;6.03;;;4.47;;
28631;SDS011;15818;45.534;5.292;2022-10-16T07:24:10;5.63;;;3.45;;
28631;SDS011;15818;45.534;5.292;2022-10-16T07:26:38;13.93;;;8.38;;
28631;SDS011;15818;45.534;5.292;2022-10-16T07:29:09;9.85;;;4.68;;
28631;SDS011;15818;45.534;5.292;2022-10-16T07:31:38;5.40;;;3.38;;
28631;SDS011;15818;45.534;5.292;2022-10-16T07:34:04;6.40;;;3.00;;
28631;SDS011;15818;45.534;5.292;2022-10-16T07:38:56;6.38;;;2.90;;
28631;SDS011;15818;45.534;5.292;2022-10-16T07:43:48;4.28;;;3.10;;
28631;SDS011;15818;45.534;5.292;2022-10-16T07:46:15;5.20;;;2.90;;
28631;SDS011;15818;45.534;5.292;2022-10-16T07:48:42;5.68;;;2.80;;
28631;SDS011;15818;45.534;5.292;2022-10-16T07:51:11;5.03;;;3.30;;
28631;SDS011;15818;45.534;5.292;2022-10-16T07:53:36;4.93;;;3.00;;
28631;SDS011;15818;45.534;5.292;2022-10-16T08:00:55;4.20;;;2.78;;
28631;SDS011;15818;45.534;5.292;2022-10-16T08:03:21;5.43;;;2.75;;
28631;SDS011;15818;45.534;5.292;2022-10-16T08:05:47;5.95;;;2.70;;
28631;SDS011;15818;45.534;5.292;2022-10-16T08:08:14;4.47;;;2.40;;
28631;SDS011;15818;45.534;5.292;2022-10-16T08:10:40;3.53;;;2.50;;
28631;SDS011;15818;45.534;5.292;2022-10-16T08:13:06;3.38;;;2.33;;
28631;SDS011;15818;45.534;5.292;2022-10-16T08:15:32;4.35;;;2.40;;
28631;SDS011;15818;45.534;5.292;2022-10-16T08:20:25;3.17;;;2.20;;
28631;SDS011;15818;45.534;5.292;2022-10-16T08:22:52;4.25;;;2.47;;
28631;SDS011;15818;45.534;5.292;2022-10-16T08:25:19;6.43;;;2.40;;
28631;SDS011;15818;45.534;5.292;2022-10-16T08:27:46;3.70;;;2.15;;
28631;SDS011;15818;45.534;5.292;2022-10-16T08:30:12;5.03;;;2.53;;
28631;SDS011;15818;45.534;5.292;2022-10-16T08:32:38;4.95;;;2.30;;
28631;SDS011;15818;45.534;5.292;2022-10-16T08:35:04;3.90;;;2.20;;
28631;SDS011;15818;45.534;5.292;2022-10-16T08:37:30;3.63;;;2.53;;
28631;SDS011;15818;45.534;5.292;2022-10-16T08:39:57;4.75;;;2.28;;
28631;SDS011;15818;45.534;5.292;2022-10-16T08:45:26;6.65;;;2.65;;
28631;SDS011;15818;45.534;5.292;2022-10-16T08:50:31;5.95;;;2.33;;
28631;SDS011;15818;45.534;5.292;2022-10-16T08:53:01;4.35;;;2.50;;
28631;SDS011;15818;45.534;5.292;2022-10-16T08:55:51;3.72;;;2.30;;
28631;SDS011;15818;45.534;5.292;2022-10-16T08:58:21;4.40;;;2.47;;
28631;SDS011;15818;45.534;5.292;2022-10-16T09:00:58;3.70;;;1.98;;
28631;SDS011;15818;45.534;5.292;2022-10-16T09:09:22;4.55;;;2.17;;
28631;SDS011;15818;45.534;5.292;2022-10-16T09:12:17;7.15;;;2.60;;
28631;SDS011;15818;45.534;5.292;2022-10-16T09:15:06;4.20;;;2.33;;
28631;SDS011;15818;45.534;5.292;2022-10-16T09:23:14;4.68;;;2.20;;
28631;SDS011;15818;45.534;5.292;2022-10-16T09:25:51;8.43;;;2.80;;
28631;SDS011;15818;45.534;5.292;2022-10-16T09:28:19;2.88;;;1.80;;
28631;SDS011;15818;45.534;5.292;2022-10-16T09:30:45;2.80;;;2.13;;
28631;SDS011;15818;45.534;5.292;2022-10-16T09:33:14;4.65;;;2.28;;
28631;SDS011;15818;45.534;5.292;2022-10-16T09:35:43;2.33;;;1.73;;
28631;SDS011;15818;45.534;5.292;2022-10-16T09:38:21;6.38;;;2.20;;
28631;SDS011;15818;45.534;5.292;2022-10-16T09:40:54;5.35;;;2.38;;
28631;SDS011;15818;45.534;5.292;2022-10-16T09:43:39;3.42;;;2.05;;
28631;SDS011;15818;45.534;5.292;2022-10-16T09:46:06;6.97;;;2.10;;
28631;SDS011;15818;45.534;5.292;2022-10-16T09:48:37;4.28;;;2.22;;
28631;SDS011;15818;45.534;5.292;2022-10-16T09:51:04;2.10;;;1.20;;
28631;SDS011;15818;45.534;5.292;2022-10-16T09:53:41;3.15;;;2.00;;
28631;SDS011;15818;45.534;5.292;2022-10-16T09:56:12;6.05;;;2.50;;
28631;SDS011;15818;45.534;5.292;2022-10-16T09:58:56;3.35;;;1.92;;
28631;SDS011;15818;45.534;5.292;2022-10-16T10:01:35;3.30;;;2.10;;
28631;SDS011;15818;45.534;5.292;2022-10-16T10:04:10;5.45;;;1.88;;
28631;SDS011;15818;45.534;5.292;2022-10-16T10:06:44;5.25;;;2.28;;
28631;SDS011;15818;45.534;5.292;2022-10-16T10:09:18;3.47;;;2.03;;
28631;SDS011;15818;45.534;5.292;2022-10-16T10:11:53;5.10;;;2.60;;
28631;SDS011;15818;45.534;5.292;2022-10-16T10:19:37;6.40;;;2.63;;
28631;SDS011;15818;45.534;5.292;2022-10-16T10:24:55;2.08;;;1.70;;
28631;SDS011;15818;45.534;5.292;2022-10-16T10:30:08;3.80;;;2.20;;
28631;SDS011;15818;45.534;5.292;2022-10-16T10:35:56;6.68;;;4.22;;
28631;SDS011;15818;45.534;5.292;2022-10-16T10:52:30;4.03;;;2.08;;
28631;SDS011;15818;45.534;5.292;2022-10-16T10:57:55;3.10;;;2.08;;
28631;SDS011;15818;45.534;5.292;2022-10-16T11:05:59;2.83;;;1.70;;
28631;SDS011;15818;45.534;5.292;2022-10-16T11:11:01;1.75;;;1.48;;
28631;SDS011;15818;45.534;5.292;2022-10-16T11:13:58;3.38;;;1.80;;
28631;SDS011;15818;45.534;5.292;2022-10-16T11:16:28;4.40;;;1.70;;
28631;SDS011;15818;45.534;5.292;2022-10-16T11:19:12;2.83;;;1.85;;
28631;SDS011;15818;45.534;5.292;2022-10-16T11:26:57;5.03;;;2.00;;
28631;SDS011;15818;45.534;5.292;2022-10-16T11:29:29;3.33;;;2.10;;
28631;SDS011;15818;45.534;5.292;2022-10-16T11:31:57;3.90;;;1.90;;
28631;SDS011;15818;45.534;5.292;2022-10-16T11:34:48;3.30;;;1.70;;
28631;SDS011;15818;45.534;5.292;2022-10-16T11:37:38;4.97;;;1.77;;
28631;SDS011;15818;45.534;5.292;2022-10-16T11:42:41;5.63;;;1.85;;
28631;SDS011;15818;45.534;5.292;2022-10-16T11:55:52;3.03;;;1.63;;
28631;SDS011;15818;45.534;5.292;2022-10-16T12:03:47;4.80;;;1.83;;
28631;SDS011;15818;45.534;5.292;2022-10-16T12:09:22;6.38;;;2.35;;
28631;SDS011;15818;45.534;5.292;2022-10-16T12:12:01;7.63;;;2.00;;
28631;SDS011;15818;45.534;5.292;2022-10-16T12:17:25;3.40;;;1.70;;
28631;SDS011;15818;45.534;5.292;2022-10-16T12:22:40;6.97;;;1.98;;
28631;SDS011;15818;45.534;5.292;2022-10-16T12:25:23;2.63;;;1.60;;
28631;SDS011;15818;45.534;5.292;2022-10-16T12:30:41;3.83;;;1.35;;
28631;SDS011;15818;45.534;5.292;2022-10-16T12:33:19;3.22;;;1.67;;
28631;SDS011;15818;45.534;5.292;2022-10-16T12:35:46;3.60;;;2.08;;
28631;SDS011;15818;45.534;5.292;2022-10-16T12:38:16;5.53;;;2.08;;
28631;SDS011;15818;45.534;5.292;2022-10-16T12:41:07;3.53;;;1.70;;
28631;SDS011;15818;45.534;5.292;2022-10-16T12:48:40;3.42;;;1.55;;
28631;SDS011;15818;45.534;5.292;2022-10-16T12:51:12;4.68;;;1.90;;
28631;SDS011;15818;45.534;5.292;2022-10-16T12:53:57;3.22;;;1.83;;
28631;SDS011;15818;45.534;5.292;2022-10-16T12:56:32;3.53;;;1.63;;
28631;SDS011;15818;45.534;5.292;2022-10-16T13:07:23;3.83;;;1.80;;
28631;SDS011;15818;45.534;5.292;2022-10-16T13:16:18;4.82;;;1.65;;
28631;SDS011;15818;45.534;5.292;2022-10-16T13:21:19;2.55;;;1.98;;
28631;SDS011;15818;45.534;5.292;2022-10-16T13:29:43;4.45;;;1.85;;
28631;SDS011;15818;45.534;5.292;2022-10-16T13:32:10;5.32;;;1.83;;
28631;SDS011;15818;45.534;5.292;2022-10-16T13:34:46;2.58;;;1.83;;
28631;SDS011;15818;45.534;5.292;2022-10-16T13:37:31;5.88;;;2.10;;
28631;SDS011;15818;45.534;5.292;2022-10-16T13:42:52;4.05;;;1.92;;
28631;SDS011;15818;45.534;5.292;2022-10-16T13:45:23;5.35;;;2.08;;
28631;SDS011;15818;45.534;5.292;2022-10-16T13:48:06;3.95;;;1.83;;
28631;SDS011;15818;45.534;5.292;2022-10-16T13:50:37;7.18;;;2.00;;
28631;SDS011;15818;45.534;5.292;2022-10-16T13:53:03;4.82;;;1.98;;
28631;SDS011;15818;45.534;5.292;2022-10-16T13:55:32;3.08;;;1.60;;
28631;SDS011;15818;45.534;5.292;2022-10-16T13:58:08;3.92;;;2.10;;
28631;SDS011;15818;45.534;5.292;2022-10-16T14:00:38;3.80;;;2.03;;
28631;SDS011;15818;45.534;5.292;2022-10-16T14:03:05;4.75;;;2.30;;
28631;SDS011;15818;45.534;5.292;2022-10-16T14:05:48;2.95;;;1.83;;
28631;SDS011;15818;45.534;5.292;2022-10-16T14:08:16;6.57;;;2.17;;
28631;SDS011;15818;45.534;5.292;2022-10-16T14:10:42;5.03;;;2.42;;
28631;SDS011;15818;45.534;5.292;2022-10-16T14:13:14;4.40;;;2.15;;
28631;SDS011;15818;45.534;5.292;2022-10-16T14:15:48;2.20;;;1.90;;
28631;SDS011;15818;45.534;5.292;2022-10-16T14:18:18;3.35;;;2.22;;
28631;SDS011;15818;45.534;5.292;2022-10-16T14:20:46;3.17;;;2.08;;
28631;SDS011;15818;45.534;5.292;2022-10-16T14:23:29;4.70;;;2.25;;
28631;SDS011;15818;45.534;5.292;2022-10-16T14:28:38;3.15;;;2.42;;
28631;SDS011;15818;45.534;5.292;2022-10-16T14:33:57;5.20;;;2.35;;
28631;SDS011;15818;45.534;5.292;2022-10-16T14:36:24;4.85;;;1.63;;
28631;SDS011;15818;45.534;5.292;2022-10-16T14:38:56;3.97;;;2.67;;
28631;SDS011;15818;45.534;5.292;2022-10-16T14:41:23;3.45;;;2.50;;
28631;SDS011;15818;45.534;5.292;2022-10-16T14:43:50;3.97;;;2.58;;
28631;SDS011;15818;45.534;5.292;2022-10-16T14:46:21;4.93;;;3.00;;
28631;SDS011;15818;45.534;5.292;2022-10-16T14:49:03;3.72;;;2.45;;
28631;SDS011;15818;45.534;5.292;2022-10-16T14:51:40;3.55;;;2.40;;
28631;SDS011;15818;45.534;5.292;2022-10-16T14:54:09;5.30;;;2.25;;
28631;SDS011;15818;45.534;5.292;2022-10-16T14:56:58;2.50;;;1.92;;
28631;SDS011;15818;45.534;5.292;2022-10-16T14:59:32;5.13;;;2.42;;
28631;SDS011;15818;45.534;5.292;2022-10-16T15:02:23;3.50;;;1.83;;
28631;SDS011;15818;45.534;5.292;2022-10-16T15:04:54;3.72;;;2.33;;
28631;SDS011;15818;45.534;5.292;2022-10-16T15:07:21;3.05;;;2.70;;
28631;SDS011;15818;45.534;5.292;2022-10-16T15:09:47;3.97;;;2.38;;
28631;SDS011;15818;45.534;5.292;2022-10-16T15:12:13;4.18;;;2.25;;
28631;SDS011;15818;45.534;5.292;2022-10-16T15:14:38;4.25;;;2.58;;
28631;SDS011;15818;45.534;5.292;2022-10-16T15:17:04;3.75;;;2.10;;
28631;SDS011;15818;45.534;5.292;2022-10-16T15:19:30;4.07;;;2.53;;
28631;SDS011;15818;45.534;5.292;2022-10-16T15:21:56;5.85;;;2.72;;
28631;SDS011;15818;45.534;5.292;2022-10-16T15:24:22;3.72;;;2.35;;
28631;SDS011;15818;45.534;5.292;2022-10-16T15:26:47;3.42;;;2.00;;
28631;SDS011;15818;45.534;5.292;2022-10-16T15:29:14;4.32;;;2.20;;
28631;SDS011;15818;45.534;5.292;2022-10-16T15:31:40;3.15;;;2.05;;
28631;SDS011;15818;45.534;5.292;2022-10-16T15:34:09;5.97;;;2.33;;
28631;SDS011;15818;45.534;5.292;2022-10-16T15:36:35;2.80;;;1.77;;
28631;SDS011;15818;45.534;5.292;2022-10-16T15:39:09;4.05;;;2.35;;
28631;SDS011;15818;45.534;5.292;2022-10-16T15:41:38;5.45;;;2.05;;
28631;SDS011;15818;45.534;5.292;2022-10-16T15:44:04;4.00;;;1.88;;
28631;SDS011;15818;45.534;5.292;2022-10-16T15:46:30;3.13;;;1.85;;
28631;SDS011;15818;45.534;5.292;2022-10-16T15:48:56;6.15;;;2.42;;
28631;SDS011;15818;45.534;5.292;2022-10-16T15:51:23;3.08;;;2.10;;
28631;SDS011;15818;45.534;5.292;2022-10-16T15:53:52;4.03;;;2.35;;
28631;SDS011;15818;45.534;5.292;2022-10-16T15:56:18;4.60;;;1.75;;
28631;SDS011;15818;45.534;5.292;2022-10-16T15:58:44;2.92;;;2.00;;
28631;SDS011;15818;45.534;5.292;2022-10-16T16:01:10;4.97;;;2.15;;
28631;SDS011;15818;45.534;5.292;2022-10-16T16:03:37;6.10;;;2.25;;
28631;SDS011;15818;45.534;5.292;2022-10-16T16:06:06;3.47;;;2.15;;
28631;SDS011;15818;45.534;5.292;2022-10-16T16:08:34;3.75;;;2.40;;
28631;SDS011;15818;45.534;5.292;2022-10-16T16:11:01;6.47;;;1.95;;
28631;SDS011;15818;45.534;5.292;2022-10-16T16:13:31;3.95;;;2.50;;
28631;SDS011;15818;45.534;5.292;2022-10-16T16:15:57;2.70;;;1.98;;
28631;SDS011;15818;45.534;5.292;2022-10-16T16:18:23;4.60;;;2.10;;
28631;SDS011;15818;45.534;5.292;2022-10-16T16:20:49;4.68;;;2.50;;
28631;SDS011;15818;45.534;5.292;2022-10-16T16:23:15;4.55;;;2.55;;
28631;SDS011;15818;45.534;5.292;2022-10-16T16:25:41;5.28;;;2.38;;
28631;SDS011;15818;45.534;5.292;2022-10-16T16:28:07;2.92;;;2.25;;
28631;SDS011;15818;45.534;5.292;2022-10-16T16:30:35;3.05;;;2.10;;
28631;SDS011;15818;45.534;5.292;2022-10-16T16:33:02;3.90;;;2.10;;
28631;SDS011;15818;45.534;5.292;2022-10-16T16:35:28;5.55;;;2.20;;
28631;SDS011;15818;45.534;5.292;2022-10-16T16:37:54;7.93;;;2.40;;
28631;SDS011;15818;45.534;5.292;2022-10-16T16:40:19;3.55;;;2.53;;
28631;SDS011;15818;45.534;5.292;2022-10-16T16:42:47;3.35;;;2.78;;
28631;SDS011;15818;45.534;5.292;2022-10-16T16:45:13;4.30;;;2.80;;
28631;SDS011;15818;45.534;5.292;2022-10-16T16:47:39;4.43;;;2.80;;
28631;SDS011;15818;45.534;5.292;2022-10-16T16:50:05;5.25;;;2.75;;
28631;SDS011;15818;45.534;5.292;2022-10-16T16:52:32;3.05;;;2.50;;
28631;SDS011;15818;45.534;5.292;2022-10-16T16:54:58;7.55;;;2.55;;
28631;SDS011;15818;45.534;5.292;2022-10-16T16:57:24;3.80;;;2.80;;
28631;SDS011;15818;45.534;5.292;2022-10-16T16:59:50;4.45;;;2.83;;
28631;SDS011;15818;45.534;5.292;2022-10-16T17:02:16;5.45;;;2.60;;
28631;SDS011;15818;45.534;5.292;2022-10-16T17:04:42;4.78;;;2.97;;
28631;SDS011;15818;45.534;5.292;2022-10-16T17:07:08;5.07;;;3.03;;
28631;SDS011;15818;45.534;5.292;2022-10-16T17:09:34;5.97;;;2.75;;
28631;SDS011;15818;45.534;5.292;2022-10-16T17:11:59;4.07;;;2.70;;
28631;SDS011;15818;45.534;5.292;2022-10-16T17:14:25;5.63;;;3.10;;
28631;SDS011;15818;45.534;5.292;2022-10-16T17:16:51;4.78;;;2.45;;
28631;SDS011;15818;45.534;5.292;2022-10-16T17:19:17;4.38;;;2.83;;
28631;SDS011;15818;45.534;5.292;2022-10-16T17:21:44;5.80;;;2.80;;
28631;SDS011;15818;45.534;5.292;2022-10-16T17:24:12;5.22;;;3.00;;
28631;SDS011;15818;45.534;5.292;2022-10-16T17:26:38;5.43;;;2.83;;
28631;SDS011;15818;45.534;5.292;2022-10-16T17:29:09;7.85;;;3.30;;
28631;SDS011;15818;45.534;5.292;2022-10-16T17:31:36;6.82;;;3.35;;
28631;SDS011;15818;45.534;5.292;2022-10-16T17:34:03;4.40;;;3.40;;
28631;SDS011;15818;45.534;5.292;2022-10-16T17:36:32;5.57;;;3.30;;
28631;SDS011;15818;45.534;5.292;2022-10-16T17:38:59;3.47;;;3.05;;
28631;SDS011;15818;45.534;5.292;2022-10-16T17:41:28;4.63;;;3.13;;
28631;SDS011;15818;45.534;5.292;2022-10-16T17:43:54;4.07;;;3.28;;
28631;SDS011;15818;45.534;5.292;2022-10-16T17:46:21;5.13;;;4.10;;
28631;SDS011;15818;45.534;5.292;2022-10-16T17:48:48;5.60;;;3.50;;
28631;SDS011;15818;45.534;5.292;2022-10-16T17:51:17;4.80;;;3.63;;
28631;SDS011;15818;45.534;5.292;2022-10-16T17:53:47;8.05;;;3.70;;
28631;SDS011;15818;45.534;5.292;2022-10-16T17:56:14;4.10;;;3.70;;
28631;SDS011;15818;45.534;5.292;2022-10-16T17:58:40;6.03;;;3.78;;
28631;SDS011;15818;45.534;5.292;2022-10-16T18:01:14;3.60;;;3.30;;
28631;SDS011;15818;45.534;5.292;2022-10-16T18:03:41;4.50;;;3.40;;
28631;SDS011;15818;45.534;5.292;2022-10-16T18:06:07;5.30;;;3.60;;
28631;SDS011;15818;45.534;5.292;2022-10-16T18:08:33;8.20;;;3.70;;
28631;SDS011;15818;45.534;5.292;2022-10-16T18:11:02;6.75;;;3.92;;
28631;SDS011;15818;45.534;5.292;2022-10-16T18:13:28;5.80;;;4.03;;
28631;SDS011;15818;45.534;5.292;2022-10-16T18:15:59;7.03;;;3.85;;
28631;SDS011;15818;45.534;5.292;2022-10-16T18:18:29;6.22;;;3.78;;
28631;SDS011;15818;45.534;5.292;2022-10-16T18:20:58;5.55;;;3.60;;
28631;SDS011;15818;45.534;5.292;2022-10-16T18:23:26;7.97;;;3.90;;
28631;SDS011;15818;45.534;5.292;2022-10-16T18:25:53;5.18;;;3.58;;
28631;SDS011;15818;45.534;5.292;2022-10-16T18:28:19;9.00;;;3.90;;
28631;SDS011;15818;45.534;5.292;2022-10-16T18:30:44;4.88;;;3.67;;
28631;SDS011;15818;45.534;5.292;2022-10-16T18:33:19;5.55;;;3.25;;
28631;SDS011;15818;45.534;5.292;2022-10-16T18:35:45;6.40;;;3.35;;
28631;SDS011;15818;45.534;5.292;2022-10-16T18:38:10;5.50;;;3.13;;
28631;SDS011;15818;45.534;5.292;2022-10-16T18:40:36;6.55;;;3.30;;
28631;SDS011;15818;45.534;5.292;2022-10-16T18:45:27;8.70;;;2.80;;
28631;SDS011;15818;45.534;5.292;2022-10-16T18:50:18;5.10;;;2.97;;
28631;SDS011;15818;45.534;5.292;2022-10-16T18:52:46;6.20;;;3.10;;
28631;SDS011;15818;45.534;5.292;2022-10-16T18:55:12;9.88;;;3.70;;
28631;SDS011;15818;45.534;5.292;2022-10-16T18:57:39;3.33;;;2.78;;
28631;SDS011;15818;45.534;5.292;2022-10-16T19:00:04;6.45;;;2.72;;
28631;SDS011;15818;45.534;5.292;2022-10-16T19:02:31;6.85;;;3.38;;
28631;SDS011;15818;45.534;5.292;2022-10-16T19:04:57;7.32;;;3.58;;
28631;SDS011;15818;45.534;5.292;2022-10-16T19:09:48;5.15;;;3.25;;
28631;SDS011;15818;45.534;5.292;2022-10-16T19:12:14;7.70;;;3.53;;
28631;SDS011;15818;45.534;5.292;2022-10-16T19:17:06;4.82;;;2.85;;
28631;SDS011;15818;45.534;5.292;2022-10-16T19:19:31;6.32;;;3.63;;
28631;SDS011;15818;45.534;5.292;2022-10-16T19:21:57;3.55;;;2.97;;
28631;SDS011;15818;45.534;5.292;2022-10-16T19:24:39;4.22;;;1.98;;
28631;SDS011;15818;45.534;5.292;2022-10-16T19:27:05;7.28;;;3.55;;
28631;SDS011;15818;45.534;5.292;2022-10-16T19:29:32;5.38;;;2.75;;
28631;SDS011;15818;45.534;5.292;2022-10-16T19:31:58;5.70;;;3.10;;
28631;SDS011;15818;45.534;5.292;2022-10-16T19:34:26;4.63;;;3.50;;
28631;SDS011;15818;45.534;5.292;2022-10-16T19:36:55;5.40;;;3.58;;
28631;SDS011;15818;45.534;5.292;2022-10-16T19:39:21;5.03;;;3.65;;
28631;SDS011;15818;45.534;5.292;2022-10-16T19:41:49;5.97;;;3.50;;
28631;SDS011;15818;45.534;5.292;2022-10-16T19:44:15;7.22;;;3.33;;
28631;SDS011;15818;45.534;5.292;2022-10-16T19:46:42;5.57;;;2.45;;
28631;SDS011;15818;45.534;5.292;2022-10-16T19:49:09;5.30;;;2.53;;
28631;SDS011;15818;45.534;5.292;2022-10-16T19:51:37;7.95;;;3.33;;
28631;SDS011;15818;45.534;5.292;2022-10-16T19:54:05;6.65;;;3.22;;
28631;SDS011;15818;45.534;5.292;2022-10-16T19:56:32;5.03;;;3.38;;
28631;SDS011;15818;45.534;5.292;2022-10-16T19:58:59;7.80;;;3.20;;